createdAt,value
2019-02-11T00:02:29.274Z,81.60
2019-02-11T00:06:46.085Z,81.60
2019-02-11T00:11:02.702Z,81.70
2019-02-11T00:15:19.598Z,82.80
2019-02-11T00:19:36.056Z,83.10
2019-02-11T00:23:52.576Z,84.20
2019-02-11T00:28:09.091Z,85.40
2019-02-11T00:32:25.600Z,86.00
2019-02-11T00:36:42.117Z,87.70
2019-02-11T00:40:58.875Z,89.20
2019-02-11T00:45:15.697Z,90.30
2019-02-11T00:49:32.142Z,91.20
2019-02-11T00:53:48.590Z,91.50
2019-02-11T00:58:05.089Z,91.80
2019-02-11T01:02:21.580Z,92.30
2019-02-11T01:06:38.044Z,92.30
2019-02-11T01:10:54.551Z,92.50
2019-02-11T01:15:11.334Z,93.00
2019-02-11T01:19:27.896Z,92.90
2019-02-11T01:23:44.409Z,92.70
2019-02-11T01:28:01.022Z,92.90
2019-02-11T01:32:17.508Z,93.10
2019-02-11T01:36:33.946Z,92.90
2019-02-11T01:40:50.815Z,93.00
2019-02-11T01:45:09.782Z,93.40
2019-02-11T01:49:26.250Z,93.50
2019-02-11T01:53:42.939Z,93.40
2019-02-11T01:57:59.417Z,93.70
2019-02-11T02:02:15.909Z,93.90
2019-02-11T02:06:32.773Z,94.00
2019-02-11T02:10:49.249Z,94.10
2019-02-11T02:15:07.862Z,94.10
2019-02-11T02:19:24.337Z,94.20
2019-02-11T02:23:41.221Z,94.40
2019-02-11T02:27:57.941Z,94.30
2019-02-11T02:32:14.489Z,94.50
2019-02-11T02:36:31.026Z,94.70
2019-02-11T02:40:47.629Z,94.70
2019-02-11T02:45:06.297Z,94.70
2019-02-11T02:49:22.804Z,94.80
2019-02-11T02:53:39.312Z,94.80
2019-02-11T02:57:56.062Z,95.20
2019-02-11T03:02:15.117Z,95.30
2019-02-11T03:06:31.665Z,95.40
2019-02-11T03:10:48.128Z,95.50
2019-02-11T03:15:07.459Z,95.50
2019-02-11T03:19:23.956Z,95.50
2019-02-11T03:23:40.457Z,95.50
2019-02-11T03:27:59.941Z,95.50
2019-02-11T03:32:16.378Z,95.50
2019-02-11T03:36:32.877Z,95.60
2019-02-11T03:40:53.600Z,95.60
2019-02-11T03:45:11.916Z,95.60
2019-02-11T03:49:28.641Z,95.50
2019-02-11T03:53:49.133Z,95.70
2019-02-11T03:58:05.582Z,95.70
2019-02-11T04:02:22.134Z,95.80
2019-02-11T04:06:41.161Z,95.50
2019-02-11T04:10:57.605Z,95.70
2019-02-11T04:15:14.231Z,95.40
2019-02-11T04:19:30.699Z,95.50
2019-02-11T04:23:48.511Z,95.30
2019-02-11T04:28:05.013Z,95.20
2019-02-11T04:32:21.526Z,95.20
2019-02-11T04:36:38.024Z,95.20
2019-02-11T04:40:55.536Z,95.10
2019-02-11T04:45:12.182Z,94.90
2019-02-11T04:49:28.721Z,94.80
2019-02-11T04:53:45.202Z,94.90
2019-02-11T04:58:08.477Z,94.80
2019-02-11T05:02:25.325Z,94.80
2019-02-11T05:06:41.843Z,94.70
2019-02-11T05:11:00.667Z,94.50
2019-02-11T05:15:17.139Z,94.60
2019-02-11T05:19:33.630Z,94.60
2019-02-11T05:23:50.153Z,94.60
2019-02-11T05:28:06.675Z,94.50
2019-02-11T05:32:23.166Z,94.60
2019-02-11T05:36:39.581Z,94.60
2019-02-11T05:40:56.091Z,94.70
2019-02-11T05:45:12.635Z,94.70
2019-02-11T05:49:29.140Z,94.70
2019-02-11T05:53:47.198Z,94.70
2019-02-11T05:58:03.672Z,94.60
2019-02-11T06:02:21.834Z,94.50
2019-02-11T06:06:38.415Z,94.50
2019-02-11T06:10:54.894Z,94.50
2019-02-11T06:15:11.475Z,94.60
2019-02-11T06:19:27.922Z,94.50
2019-02-11T06:23:44.501Z,94.50
2019-02-11T06:28:01.336Z,94.60
2019-02-11T06:32:18.017Z,94.70
2019-02-11T06:36:34.492Z,94.50
2019-02-11T06:40:50.976Z,94.60
2019-02-11T06:45:13.084Z,94.40
2019-02-11T06:49:27.421Z,94.30
2019-02-11T06:53:43.931Z,94.30
2019-02-11T06:58:00.590Z,94.60
2019-02-11T07:02:17.188Z,94.70
2019-02-11T07:06:33.669Z,95.20
2019-02-11T07:10:55.447Z,94.80
2019-02-11T07:15:21.290Z,94.90
2019-02-11T07:19:30.874Z,94.80
2019-02-11T07:23:51.546Z,94.90
2019-02-11T07:28:08.037Z,95.00
2019-02-11T07:32:26.446Z,95.10
2019-02-11T07:36:42.998Z,95.10
2019-02-11T07:40:59.443Z,94.70
2019-02-11T07:45:17.849Z,94.40
2019-02-11T07:49:34.322Z,94.00
2019-02-11T07:53:50.807Z,93.90
2019-02-11T07:58:07.338Z,93.70
2019-02-11T08:02:23.996Z,93.50
2019-02-11T08:06:40.480Z,93.60
2019-02-11T08:10:56.981Z,93.60
2019-02-11T08:15:13.503Z,93.80
2019-02-11T08:19:30.329Z,93.80
2019-02-11T08:23:46.931Z,93.70
2019-02-11T08:28:03.671Z,93.60
2019-02-11T08:32:20.171Z,93.30
2019-02-11T08:36:36.713Z,93.10
2019-02-11T08:40:53.219Z,93.10
2019-02-11T08:45:09.923Z,92.30
2019-02-11T08:49:26.673Z,92.30
2019-02-11T08:53:43.420Z,92.10
2019-02-11T08:58:01.925Z,91.90
2019-02-11T09:02:18.635Z,91.80
2019-02-11T09:06:35.069Z,92.10
2019-02-11T09:10:51.879Z,92.30
2019-02-11T09:15:10.396Z,92.30
2019-02-11T09:19:26.879Z,92.80
2019-02-11T09:23:43.406Z,92.90
2019-02-11T09:27:59.872Z,92.80
2019-02-11T09:32:18.172Z,92.80
2019-02-11T09:36:34.771Z,91.30
2019-02-11T09:40:51.381Z,91.10
2019-02-11T09:45:25.529Z,90.40
2019-02-11T09:49:42.059Z,91.20
2019-02-11T09:53:58.626Z,90.20
2019-02-11T09:58:15.858Z,87.20
2019-02-11T10:02:32.295Z,85.00
2019-02-11T10:06:48.738Z,85.00
2019-02-11T10:11:05.230Z,85.60
2019-02-11T10:15:22.199Z,86.90
2019-02-11T10:19:38.693Z,86.20
2019-02-11T10:23:55.500Z,85.70
2019-02-11T10:28:12.088Z,85.60
2019-02-11T10:32:28.886Z,84.30
2019-02-11T10:36:45.474Z,83.30
2019-02-11T10:41:01.989Z,82.30
2019-02-11T10:45:18.607Z,83.00
2019-02-11T10:49:35.075Z,81.50
2019-02-11T10:53:51.528Z,83.60
2019-02-11T10:58:08.133Z,80.90
2019-02-11T11:02:24.939Z,80.50
2019-02-11T11:06:41.451Z,82.10
2019-02-11T11:10:58.534Z,81.60
2019-02-11T11:15:15.230Z,83.10
2019-02-11T11:19:31.848Z,81.90
2019-02-11T11:23:48.478Z,81.20
2019-02-11T11:28:05.156Z,82.00
2019-02-11T11:32:28.121Z,80.70
2019-02-11T11:36:44.569Z,79.30
2019-02-11T11:41:01.406Z,78.10
2019-02-11T11:45:18.818Z,76.40
2019-02-11T11:49:35.323Z,75.80
2019-02-11T11:53:51.747Z,74.70
2019-02-11T11:58:08.659Z,74.00
2019-02-11T12:02:25.088Z,73.30
2019-02-11T12:06:41.613Z,73.00
2019-02-11T12:10:58.128Z,72.20
2019-02-11T12:15:17.962Z,70.10
2019-02-11T12:19:34.456Z,71.30
2019-02-11T12:23:50.977Z,71.70
2019-02-11T12:28:07.556Z,71.60
2019-02-11T12:32:24.359Z,72.10
2019-02-11T12:36:40.923Z,74.10
2019-02-11T12:40:57.438Z,72.50
2019-02-11T12:45:16.932Z,72.30
2019-02-11T12:49:33.422Z,69.70
2019-02-11T12:53:50.174Z,67.80
2019-02-11T12:58:06.681Z,66.70
2019-02-11T13:02:23.511Z,67.50
2019-02-11T13:06:41.023Z,67.00
2019-02-11T13:10:57.569Z,68.90
2019-02-11T13:15:33.671Z,68.80
2019-02-11T13:19:33.152Z,67.80
2019-02-11T13:23:49.617Z,68.10
2019-02-11T13:28:06.170Z,68.90
2019-02-11T13:32:22.699Z,69.10
2019-02-11T13:36:39.273Z,70.10
2019-02-11T13:40:55.928Z,74.40
2019-02-11T13:45:18.529Z,79.20
2019-02-11T13:49:35.072Z,84.50
2019-02-11T13:53:51.643Z,85.40
2019-02-11T13:58:08.840Z,84.50
2019-02-11T14:02:25.453Z,83.50
2019-02-11T14:06:41.979Z,83.00
2019-02-11T14:10:58.637Z,83.90
2019-02-11T14:15:20.029Z,85.80
2019-02-11T14:19:33.565Z,88.00
2019-02-11T14:23:50.210Z,86.50
2019-02-11T14:28:06.914Z,86.90
2019-02-11T14:32:23.420Z,87.20
2019-02-11T14:36:43.085Z,87.80
2019-02-11T14:40:58.474Z,87.70
2019-02-11T14:45:17.810Z,88.10
2019-02-11T14:49:34.368Z,87.80
2019-02-11T14:53:51.192Z,87.60
2019-02-11T14:58:08.453Z,87.60
2019-02-11T15:02:25.042Z,87.10
2019-02-11T15:06:41.579Z,86.40
2019-02-11T15:10:58.398Z,82.90
2019-02-11T15:15:15.210Z,82.10
2019-02-11T15:19:31.928Z,80.60
2019-02-11T15:23:48.506Z,82.50
2019-02-11T15:28:05.293Z,83.10
2019-02-11T15:32:21.813Z,83.30
2019-02-11T15:36:41.231Z,83.10
2019-02-11T15:40:57.702Z,82.90
2019-02-11T15:45:15.154Z,82.20
2019-02-11T15:49:31.657Z,82.00
2019-02-11T15:53:48.193Z,82.70
2019-02-11T15:58:05.116Z,82.80
2019-02-11T16:02:21.629Z,82.70
2019-02-11T16:06:38.388Z,82.80
2019-02-11T16:11:01.173Z,83.20
2019-02-11T16:15:13.219Z,83.30
2019-02-11T16:19:32.551Z,84.20
2019-02-11T16:23:49.014Z,84.90
2019-02-11T16:28:05.678Z,88.60
2019-02-11T16:32:24.393Z,91.10
2019-02-11T16:36:41.369Z,92.20
2019-02-11T16:40:57.914Z,93.00
2019-02-11T16:45:14.731Z,93.20
2019-02-11T16:49:32.436Z,93.00
2019-02-11T16:53:51.114Z,93.10
2019-02-11T16:58:07.928Z,93.10
2019-02-11T17:02:24.741Z,93.10
2019-02-11T17:06:42.635Z,93.10
2019-02-11T17:11:00.988Z,93.20
2019-02-11T17:15:19.019Z,93.10
2019-02-11T17:19:38.219Z,92.90
2019-02-11T17:23:57.243Z,92.70
2019-02-11T17:28:13.945Z,92.50
2019-02-11T17:32:30.599Z,92.30
2019-02-11T17:36:47.108Z,92.20
2019-02-11T17:41:03.624Z,92.20
2019-02-11T17:45:29.769Z,92.50
2019-02-11T17:49:46.367Z,92.60
2019-02-11T17:54:03.207Z,92.60
2019-02-11T17:58:20.062Z,92.70
2019-02-11T18:02:36.660Z,92.90
2019-02-11T18:06:53.145Z,93.00
2019-02-11T18:11:10.578Z,93.10
2019-02-11T18:15:37.479Z,92.90
2019-02-11T18:19:54.069Z,93.00
2019-02-11T18:24:10.592Z,93.20
2019-02-11T18:28:28.245Z,93.00
2019-02-11T18:32:44.849Z,92.70
2019-02-11T18:37:01.565Z,92.20
2019-02-11T18:41:18.393Z,91.70
2019-02-11T18:45:38.182Z,91.40
2019-02-11T18:49:54.782Z,91.30
2019-02-11T18:54:12.713Z,91.30
2019-02-11T18:58:31.283Z,91.30
2019-02-11T19:02:49.162Z,91.00
2019-02-11T19:07:06.805Z,90.80
2019-02-11T19:11:24.737Z,90.60
2019-02-11T19:15:41.909Z,90.40
2019-02-11T19:19:58.545Z,90.60
2019-02-11T19:24:17.357Z,90.50
2019-02-11T19:28:35.305Z,90.40
2019-02-11T19:32:55.298Z,90.30
2019-02-11T19:37:16.090Z,90.10
2019-02-11T19:41:33.226Z,89.70
2019-02-11T19:45:50.020Z,89.00
2019-02-11T19:50:12.530Z,88.10
2019-02-11T19:54:31.858Z,88.00
2019-02-11T19:58:50.672Z,87.80
2019-02-11T20:03:10.237Z,88.30
2019-02-11T20:07:27.518Z,88.60
2019-02-11T20:11:45.243Z,88.30
2019-02-11T20:16:02.077Z,88.00
2019-02-11T20:20:20.915Z,88.20
2019-02-11T20:24:38.585Z,88.40
2019-02-11T20:28:59.548Z,89.10
2019-02-11T20:33:16.866Z,89.00
2019-02-11T20:37:33.472Z,89.50
2019-02-11T20:41:50.094Z,89.70
2019-02-11T20:46:07.692Z,89.70
2019-02-11T20:50:25.365Z,89.80
2019-02-11T20:54:42.200Z,90.10
2019-02-11T20:58:58.714Z,89.80
2019-02-11T21:03:15.329Z,87.70
2019-02-11T21:07:32.858Z,86.40
2019-02-11T21:11:49.645Z,85.20
2019-02-11T21:16:07.214Z,84.90
2019-02-11T21:20:39.434Z,85.50
2019-02-11T21:24:55.919Z,85.20
2019-02-11T21:29:12.772Z,85.60
2019-02-11T21:33:29.267Z,86.10
2019-02-11T21:37:45.878Z,86.10
2019-02-11T21:42:02.731Z,86.00
2019-02-11T21:46:19.469Z,86.00
2019-02-11T21:50:35.935Z,86.50
2019-02-11T21:54:52.408Z,86.70
2019-02-11T21:59:08.971Z,85.40
2019-02-11T22:03:25.492Z,84.60
2019-02-11T22:07:41.954Z,83.40
2019-02-11T22:11:58.403Z,82.60
2019-02-11T22:16:14.905Z,82.40
2019-02-11T22:20:34.795Z,82.80
2019-02-11T22:24:49.701Z,83.00
2019-02-11T22:29:06.201Z,84.50
2019-02-11T22:33:24.238Z,83.60
2019-02-11T22:37:41.138Z,83.90
2019-02-11T22:41:57.869Z,84.30
2019-02-11T22:46:14.398Z,85.00
2019-02-11T22:50:30.839Z,84.70
2019-02-11T22:54:47.318Z,85.80
2019-02-11T22:59:05.133Z,85.70
2019-02-11T23:03:21.824Z,85.60
2019-02-11T23:07:40.074Z,85.90
2019-02-11T23:11:56.787Z,86.20
2019-02-11T23:16:13.652Z,85.50
2019-02-11T23:20:30.137Z,85.60
2019-02-11T23:24:46.606Z,85.40
2019-02-11T23:29:03.162Z,85.00
2019-02-11T23:33:20.181Z,84.60
2019-02-11T23:37:36.709Z,84.20
2019-02-11T23:41:53.215Z,84.80
2019-02-11T23:46:09.718Z,83.70
2019-02-11T23:50:26.247Z,83.20
2019-02-11T23:54:43.111Z,82.40
2019-02-11T23:58:59.899Z,81.30
